Terminal Aerodrome Forecast
Issued by NWS Jackson, MS

Home | Current Version | Previous Version | Text Only | Print | Product List | Glossary On
Versions: 1 2 3 4 5 6 7 8 9 10 11 12
000
FTUS44 KMEG 062320
TAFTUP
TAF
KTUP 062320Z 0700/0724 19007KT P6SM SKC
     FM070100 15003KT P6SM FEW250
     FM071500 20005KT P6SM SCT250
     FM071800 18011G16KT P6SM BKN250=

USA.gov is the U.S. government's official web portal to all federal, state and local government web resources and services.